sensor_id;sensor_type;location;lat;lon;timestamp;P1;durP1;ratioP1;P2;durP2;ratioP2
1721;SDS011;858;53.190;8.596;2023-05-19T00:00:42;8.27;;;5.67;;
1721;SDS011;858;53.190;8.596;2023-05-19T00:03:10;8.70;;;4.60;;
1721;SDS011;858;53.190;8.596;2023-05-19T00:05:38;7.43;;;4.33;;
1721;SDS011;858;53.190;8.596;2023-05-19T00:08:10;14.33;;;5.77;;
1721;SDS011;858;53.190;8.596;2023-05-19T00:10:37;7.50;;;4.63;;
1721;SDS011;858;53.190;8.596;2023-05-19T00:13:05;6.87;;;4.07;;
1721;SDS011;858;53.190;8.596;2023-05-19T00:15:32;8.93;;;5.20;;
1721;SDS011;858;53.190;8.596;2023-05-19T00:17:59;9.80;;;4.30;;
1721;SDS011;858;53.190;8.596;2023-05-19T00:20:26;12.83;;;4.47;;
1721;SDS011;858;53.190;8.596;2023-05-19T00:22:53;14.73;;;5.00;;
1721;SDS011;858;53.190;8.596;2023-05-19T00:25:19;5.93;;;4.40;;
1721;SDS011;858;53.190;8.596;2023-05-19T00:27:45;7.87;;;4.10;;
1721;SDS011;858;53.190;8.596;2023-05-19T00:30:14;5.97;;;3.90;;
1721;SDS011;858;53.190;8.596;2023-05-19T00:32:40;6.10;;;5.10;;
1721;SDS011;858;53.190;8.596;2023-05-19T00:35:07;6.57;;;4.40;;
1721;SDS011;858;53.190;8.596;2023-05-19T00:37:34;5.53;;;3.43;;
1721;SDS011;858;53.190;8.596;2023-05-19T00:40:00;7.30;;;3.93;;
1721;SDS011;858;53.190;8.596;2023-05-19T00:42:26;5.23;;;3.80;;
1721;SDS011;858;53.190;8.596;2023-05-19T00:44:53;7.30;;;4.90;;
1721;SDS011;858;53.190;8.596;2023-05-19T00:47:21;7.53;;;6.17;;
1721;SDS011;858;53.190;8.596;2023-05-19T00:49:47;7.40;;;5.57;;
1721;SDS011;858;53.190;8.596;2023-05-19T00:52:14;13.33;;;4.80;;
1721;SDS011;858;53.190;8.596;2023-05-19T00:54:40;8.30;;;4.47;;
1721;SDS011;858;53.190;8.596;2023-05-19T00:57:07;7.50;;;4.77;;
1721;SDS011;858;53.190;8.596;2023-05-19T00:59:33;6.10;;;4.97;;
1721;SDS011;858;53.190;8.596;2023-05-19T01:01:59;7.17;;;4.70;;
1721;SDS011;858;53.190;8.596;2023-05-19T01:04:28;9.07;;;5.00;;
1721;SDS011;858;53.190;8.596;2023-05-19T01:06:58;5.47;;;3.73;;
1721;SDS011;858;53.190;8.596;2023-05-19T01:09:25;8.20;;;4.63;;
1721;SDS011;858;53.190;8.596;2023-05-19T01:11:52;6.80;;;4.20;;
1721;SDS011;858;53.190;8.596;2023-05-19T01:14:18;10.67;;;5.30;;
1721;SDS011;858;53.190;8.596;2023-05-19T01:16:46;10.47;;;4.70;;
1721;SDS011;858;53.190;8.596;2023-05-19T01:19:18;6.47;;;4.57;;
1721;SDS011;858;53.190;8.596;2023-05-19T01:22:03;5.90;;;5.30;;
1721;SDS011;858;53.190;8.596;2023-05-19T01:24:56;7.40;;;4.97;;
1721;SDS011;858;53.190;8.596;2023-05-19T01:32:59;10.13;;;4.73;;
1721;SDS011;858;53.190;8.596;2023-05-19T01:35:28;5.37;;;4.80;;
1721;SDS011;858;53.190;8.596;2023-05-19T01:37:54;7.23;;;6.50;;
1721;SDS011;858;53.190;8.596;2023-05-19T01:40:23;7.70;;;5.33;;
1721;SDS011;858;53.190;8.596;2023-05-19T01:42:50;7.03;;;4.60;;
1721;SDS011;858;53.190;8.596;2023-05-19T01:45:19;5.40;;;4.60;;
1721;SDS011;858;53.190;8.596;2023-05-19T01:47:46;6.13;;;4.30;;
1721;SDS011;858;53.190;8.596;2023-05-19T01:50:15;8.27;;;3.97;;
1721;SDS011;858;53.190;8.596;2023-05-19T01:52:41;5.00;;;4.50;;
1721;SDS011;858;53.190;8.596;2023-05-19T01:55:08;6.17;;;4.70;;
1721;SDS011;858;53.190;8.596;2023-05-19T01:57:37;6.50;;;4.80;;
1721;SDS011;858;53.190;8.596;2023-05-19T02:00:09;8.23;;;3.73;;
1721;SDS011;858;53.190;8.596;2023-05-19T02:02:39;7.40;;;5.20;;
1721;SDS011;858;53.190;8.596;2023-05-19T02:05:08;9.43;;;4.73;;
1721;SDS011;858;53.190;8.596;2023-05-19T02:07:42;5.40;;;4.40;;
1721;SDS011;858;53.190;8.596;2023-05-19T02:10:10;5.63;;;4.23;;
1721;SDS011;858;53.190;8.596;2023-05-19T02:12:37;6.00;;;3.87;;
1721;SDS011;858;53.190;8.596;2023-05-19T02:15:04;6.00;;;4.90;;
1721;SDS011;858;53.190;8.596;2023-05-19T02:17:33;4.00;;;3.70;;
1721;SDS011;858;53.190;8.596;2023-05-19T02:20:01;9.57;;;5.13;;
1721;SDS011;858;53.190;8.596;2023-05-19T02:22:28;6.20;;;3.90;;
1721;SDS011;858;53.190;8.596;2023-05-19T02:24:56;7.50;;;4.60;;
1721;SDS011;858;53.190;8.596;2023-05-19T02:27:22;5.40;;;4.03;;
1721;SDS011;858;53.190;8.596;2023-05-19T02:29:50;4.60;;;3.83;;
1721;SDS011;858;53.190;8.596;2023-05-19T02:32:17;9.63;;;4.50;;
1721;SDS011;858;53.190;8.596;2023-05-19T02:34:43;9.83;;;5.03;;
1721;SDS011;858;53.190;8.596;2023-05-19T02:37:10;6.33;;;4.33;;
1721;SDS011;858;53.190;8.596;2023-05-19T02:39:37;8.17;;;4.87;;
1721;SDS011;858;53.190;8.596;2023-05-19T02:42:05;5.93;;;4.27;;
1721;SDS011;858;53.190;8.596;2023-05-19T02:44:33;8.87;;;5.07;;
1721;SDS011;858;53.190;8.596;2023-05-19T02:46:59;7.00;;;5.70;;
1721;SDS011;858;53.190;8.596;2023-05-19T02:49:26;7.07;;;4.47;;
1721;SDS011;858;53.190;8.596;2023-05-19T02:51:54;6.60;;;4.17;;
1721;SDS011;858;53.190;8.596;2023-05-19T02:54:21;6.90;;;4.63;;
1721;SDS011;858;53.190;8.596;2023-05-19T02:56:47;5.30;;;4.70;;
1721;SDS011;858;53.190;8.596;2023-05-19T02:59:15;6.93;;;4.70;;
1721;SDS011;858;53.190;8.596;2023-05-19T03:01:41;7.83;;;4.97;;
1721;SDS011;858;53.190;8.596;2023-05-19T03:04:07;5.00;;;4.47;;
1721;SDS011;858;53.190;8.596;2023-05-19T03:06:34;9.40;;;4.30;;
1721;SDS011;858;53.190;8.596;2023-05-19T03:09:00;5.90;;;4.47;;
1721;SDS011;858;53.190;8.596;2023-05-19T03:11:27;6.63;;;5.43;;
1721;SDS011;858;53.190;8.596;2023-05-19T03:13:54;6.33;;;4.67;;
1721;SDS011;858;53.190;8.596;2023-05-19T03:16:22;6.00;;;4.80;;
1721;SDS011;858;53.190;8.596;2023-05-19T03:18:49;8.43;;;4.70;;
1721;SDS011;858;53.190;8.596;2023-05-19T03:21:16;6.10;;;5.47;;
1721;SDS011;858;53.190;8.596;2023-05-19T03:23:42;8.80;;;4.07;;
1721;SDS011;858;53.190;8.596;2023-05-19T03:26:09;9.77;;;5.70;;
1721;SDS011;858;53.190;8.596;2023-05-19T03:28:35;6.87;;;4.60;;
1721;SDS011;858;53.190;8.596;2023-05-19T03:31:01;7.73;;;5.00;;
1721;SDS011;858;53.190;8.596;2023-05-19T03:33:29;4.90;;;4.40;;
1721;SDS011;858;53.190;8.596;2023-05-19T03:35:56;6.90;;;4.83;;
1721;SDS011;858;53.190;8.596;2023-05-19T03:38:23;7.13;;;5.47;;
1721;SDS011;858;53.190;8.596;2023-05-19T03:40:49;10.20;;;5.80;;
1721;SDS011;858;53.190;8.596;2023-05-19T03:43:16;9.73;;;6.27;;
1721;SDS011;858;53.190;8.596;2023-05-19T03:45:43;8.60;;;4.93;;
1721;SDS011;858;53.190;8.596;2023-05-19T03:48:09;8.10;;;5.67;;
1721;SDS011;858;53.190;8.596;2023-05-19T03:50:37;8.33;;;4.90;;
1721;SDS011;858;53.190;8.596;2023-05-19T03:53:04;7.30;;;4.90;;
1721;SDS011;858;53.190;8.596;2023-05-19T03:55:30;9.50;;;4.93;;
1721;SDS011;858;53.190;8.596;2023-05-19T03:57:57;9.00;;;4.90;;
1721;SDS011;858;53.190;8.596;2023-05-19T04:00:24;10.10;;;5.20;;
1721;SDS011;858;53.190;8.596;2023-05-19T04:02:51;5.83;;;5.10;;
1721;SDS011;858;53.190;8.596;2023-05-19T04:05:17;5.93;;;5.17;;
1721;SDS011;858;53.190;8.596;2023-05-19T04:07:45;9.90;;;5.23;;
1721;SDS011;858;53.190;8.596;2023-05-19T04:10:12;8.63;;;6.03;;
1721;SDS011;858;53.190;8.596;2023-05-19T04:12:40;6.77;;;5.47;;
1721;SDS011;858;53.190;8.596;2023-05-19T04:15:06;8.97;;;5.43;;
1721;SDS011;858;53.190;8.596;2023-05-19T04:17:35;11.47;;;5.13;;
1721;SDS011;858;53.190;8.596;2023-05-19T04:20:03;9.37;;;5.60;;
1721;SDS011;858;53.190;8.596;2023-05-19T04:22:30;13.90;;;5.40;;
1721;SDS011;858;53.190;8.596;2023-05-19T04:24:58;9.83;;;5.60;;
1721;SDS011;858;53.190;8.596;2023-05-19T04:27:24;12.87;;;5.50;;
1721;SDS011;858;53.190;8.596;2023-05-19T04:29:51;7.37;;;5.80;;
1721;SDS011;858;53.190;8.596;2023-05-19T04:32:18;6.77;;;5.97;;
1721;SDS011;858;53.190;8.596;2023-05-19T04:34:45;6.90;;;6.10;;
1721;SDS011;858;53.190;8.596;2023-05-19T04:37:11;7.90;;;5.93;;
1721;SDS011;858;53.190;8.596;2023-05-19T04:39:38;8.93;;;5.97;;
1721;SDS011;858;53.190;8.596;2023-05-19T04:42:08;6.80;;;5.40;;
1721;SDS011;858;53.190;8.596;2023-05-19T04:44:35;14.83;;;6.20;;
1721;SDS011;858;53.190;8.596;2023-05-19T04:47:04;10.67;;;6.83;;
1721;SDS011;858;53.190;8.596;2023-05-19T04:49:30;7.17;;;6.30;;
1721;SDS011;858;53.190;8.596;2023-05-19T04:51:57;15.20;;;7.37;;
1721;SDS011;858;53.190;8.596;2023-05-19T04:54:24;6.10;;;5.43;;
1721;SDS011;858;53.190;8.596;2023-05-19T04:56:50;8.40;;;6.13;;
1721;SDS011;858;53.190;8.596;2023-05-19T04:59:18;8.83;;;5.77;;
1721;SDS011;858;53.190;8.596;2023-05-19T05:01:44;9.23;;;5.90;;
1721;SDS011;858;53.190;8.596;2023-05-19T05:04:11;8.07;;;5.53;;
1721;SDS011;858;53.190;8.596;2023-05-19T05:06:37;7.20;;;6.03;;
1721;SDS011;858;53.190;8.596;2023-05-19T05:09:04;11.83;;;5.40;;
1721;SDS011;858;53.190;8.596;2023-05-19T05:11:31;9.30;;;6.33;;
1721;SDS011;858;53.190;8.596;2023-05-19T05:13:57;10.60;;;5.97;;
1721;SDS011;858;53.190;8.596;2023-05-19T05:16:26;7.60;;;5.97;;
1721;SDS011;858;53.190;8.596;2023-05-19T05:18:52;8.50;;;6.33;;
1721;SDS011;858;53.190;8.596;2023-05-19T05:21:19;10.10;;;6.37;;
1721;SDS011;858;53.190;8.596;2023-05-19T05:23:47;7.00;;;6.40;;
1721;SDS011;858;53.190;8.596;2023-05-19T05:26:16;10.30;;;7.20;;
1721;SDS011;858;53.190;8.596;2023-05-19T05:28:42;10.63;;;6.90;;
1721;SDS011;858;53.190;8.596;2023-05-19T05:31:08;12.57;;;6.37;;
1721;SDS011;858;53.190;8.596;2023-05-19T05:33:37;14.73;;;6.87;;
1721;SDS011;858;53.190;8.596;2023-05-19T05:36:03;17.60;;;7.13;;
1721;SDS011;858;53.190;8.596;2023-05-19T05:38:30;10.90;;;6.10;;
1721;SDS011;858;53.190;8.596;2023-05-19T05:40:56;14.00;;;8.17;;
1721;SDS011;858;53.190;8.596;2023-05-19T05:43:22;12.47;;;7.83;;
1721;SDS011;858;53.190;8.596;2023-05-19T05:45:49;15.10;;;7.67;;
1721;SDS011;858;53.190;8.596;2023-05-19T05:48:15;13.60;;;7.37;;
1721;SDS011;858;53.190;8.596;2023-05-19T05:50:45;17.83;;;7.10;;
1721;SDS011;858;53.190;8.596;2023-05-19T05:53:15;15.03;;;8.87;;
1721;SDS011;858;53.190;8.596;2023-05-19T05:55:43;11.03;;;7.00;;
1721;SDS011;858;53.190;8.596;2023-05-19T05:58:10;14.10;;;8.50;;
1721;SDS011;858;53.190;8.596;2023-05-19T06:00:38;14.57;;;7.27;;
1721;SDS011;858;53.190;8.596;2023-05-19T06:03:07;16.30;;;9.23;;
1721;SDS011;858;53.190;8.596;2023-05-19T06:05:33;13.20;;;7.40;;
1721;SDS011;858;53.190;8.596;2023-05-19T06:08:01;11.40;;;7.53;;
1721;SDS011;858;53.190;8.596;2023-05-19T06:10:28;10.80;;;7.50;;
1721;SDS011;858;53.190;8.596;2023-05-19T06:12:55;12.83;;;8.00;;
1721;SDS011;858;53.190;8.596;2023-05-19T06:15:21;15.00;;;7.60;;
1721;SDS011;858;53.190;8.596;2023-05-19T06:17:47;14.00;;;7.90;;
1721;SDS011;858;53.190;8.596;2023-05-19T06:20:14;11.60;;;6.33;;
1721;SDS011;858;53.190;8.596;2023-05-19T06:22:40;13.17;;;7.50;;
1721;SDS011;858;53.190;8.596;2023-05-19T06:25:08;10.93;;;6.80;;
1721;SDS011;858;53.190;8.596;2023-05-19T06:27:35;10.60;;;6.17;;
1721;SDS011;858;53.190;8.596;2023-05-19T06:30:01;10.40;;;6.47;;
1721;SDS011;858;53.190;8.596;2023-05-19T06:32:28;20.83;;;7.30;;
1721;SDS011;858;53.190;8.596;2023-05-19T06:34:54;12.70;;;6.30;;
1721;SDS011;858;53.190;8.596;2023-05-19T06:37:21;14.73;;;6.20;;
1721;SDS011;858;53.190;8.596;2023-05-19T06:39:48;12.77;;;5.70;;
1721;SDS011;858;53.190;8.596;2023-05-19T06:42:17;8.63;;;5.80;;
1721;SDS011;858;53.190;8.596;2023-05-19T06:44:46;9.23;;;5.73;;
1721;SDS011;858;53.190;8.596;2023-05-19T06:47:14;12.27;;;7.30;;
1721;SDS011;858;53.190;8.596;2023-05-19T06:49:41;9.27;;;5.33;;
1721;SDS011;858;53.190;8.596;2023-05-19T06:52:07;8.30;;;5.10;;
1721;SDS011;858;53.190;8.596;2023-05-19T06:54:35;10.30;;;5.67;;
1721;SDS011;858;53.190;8.596;2023-05-19T06:57:02;14.83;;;5.57;;
1721;SDS011;858;53.190;8.596;2023-05-19T06:59:30;9.23;;;4.87;;
1721;SDS011;858;53.190;8.596;2023-05-19T07:01:56;7.77;;;5.13;;
1721;SDS011;858;53.190;8.596;2023-05-19T07:04:23;10.47;;;5.00;;
1721;SDS011;858;53.190;8.596;2023-05-19T07:06:49;9.80;;;5.00;;
1721;SDS011;858;53.190;8.596;2023-05-19T07:09:15;8.33;;;4.40;;
1721;SDS011;858;53.190;8.596;2023-05-19T07:11:42;9.03;;;5.50;;
1721;SDS011;858;53.190;8.596;2023-05-19T07:14:08;10.40;;;5.10;;
1721;SDS011;858;53.190;8.596;2023-05-19T07:16:36;7.47;;;5.10;;
1721;SDS011;858;53.190;8.596;2023-05-19T07:19:02;12.30;;;4.80;;
1721;SDS011;858;53.190;8.596;2023-05-19T07:21:28;9.80;;;4.40;;
1721;SDS011;858;53.190;8.596;2023-05-19T07:23:55;9.27;;;4.63;;
1721;SDS011;858;53.190;8.596;2023-05-19T07:26:21;16.00;;;4.90;;
1721;SDS011;858;53.190;8.596;2023-05-19T07:28:47;10.60;;;5.33;;
1721;SDS011;858;53.190;8.596;2023-05-19T07:31:14;8.20;;;4.87;;
1721;SDS011;858;53.190;8.596;2023-05-19T07:33:41;6.60;;;3.63;;
1721;SDS011;858;53.190;8.596;2023-05-19T07:36:08;8.00;;;3.90;;
1721;SDS011;858;53.190;8.596;2023-05-19T07:38:34;14.37;;;4.83;;
1721;SDS011;858;53.190;8.596;2023-05-19T07:41:01;4.27;;;3.40;;
1721;SDS011;858;53.190;8.596;2023-05-19T07:43:29;7.70;;;4.53;;
1721;SDS011;858;53.190;8.596;2023-05-19T07:45:55;4.33;;;3.93;;
1721;SDS011;858;53.190;8.596;2023-05-19T07:48:21;9.50;;;5.07;;
1721;SDS011;858;53.190;8.596;2023-05-19T07:50:51;7.57;;;3.20;;
1721;SDS011;858;53.190;8.596;2023-05-19T07:53:17;16.73;;;3.83;;
1721;SDS011;858;53.190;8.596;2023-05-19T07:55:44;4.43;;;3.73;;
1721;SDS011;858;53.190;8.596;2023-05-19T07:58:11;6.90;;;4.30;;
1721;SDS011;858;53.190;8.596;2023-05-19T08:00:37;12.63;;;3.57;;
1721;SDS011;858;53.190;8.596;2023-05-19T08:03:05;7.43;;;4.00;;
1721;SDS011;858;53.190;8.596;2023-05-19T08:05:32;5.23;;;3.80;;
1721;SDS011;858;53.190;8.596;2023-05-19T08:08:00;10.20;;;3.90;;
1721;SDS011;858;53.190;8.596;2023-05-19T08:10:27;9.57;;;4.30;;
1721;SDS011;858;53.190;8.596;2023-05-19T08:12:53;13.03;;;3.80;;
1721;SDS011;858;53.190;8.596;2023-05-19T08:15:20;12.30;;;4.70;;
1721;SDS011;858;53.190;8.596;2023-05-19T08:17:46;5.57;;;3.60;;
1721;SDS011;858;53.190;8.596;2023-05-19T08:20:12;6.43;;;3.37;;
1721;SDS011;858;53.190;8.596;2023-05-19T08:22:39;7.40;;;3.60;;
1721;SDS011;858;53.190;8.596;2023-05-19T08:25:07;11.23;;;4.07;;
1721;SDS011;858;53.190;8.596;2023-05-19T08:27:33;10.00;;;4.00;;
1721;SDS011;858;53.190;8.596;2023-05-19T08:30:00;5.63;;;3.57;;
1721;SDS011;858;53.190;8.596;2023-05-19T08:32:26;7.43;;;4.27;;
1721;SDS011;858;53.190;8.596;2023-05-19T08:34:53;6.70;;;3.80;;
1721;SDS011;858;53.190;8.596;2023-05-19T08:37:19;9.90;;;4.83;;
1721;SDS011;858;53.190;8.596;2023-05-19T08:39:45;7.77;;;3.50;;
1721;SDS011;858;53.190;8.596;2023-05-19T08:42:13;10.83;;;3.93;;
1721;SDS011;858;53.190;8.596;2023-05-19T08:44:41;5.97;;;3.40;;
1721;SDS011;858;53.190;8.596;2023-05-19T08:47:08;5.47;;;2.60;;
1721;SDS011;858;53.190;8.596;2023-05-19T08:49:41;7.07;;;3.20;;
1721;SDS011;858;53.190;8.596;2023-05-19T08:52:08;6.67;;;3.37;;
1721;SDS011;858;53.190;8.596;2023-05-19T08:54:40;8.10;;;3.47;;
1721;SDS011;858;53.190;8.596;2023-05-19T08:57:09;16.30;;;3.77;;
1721;SDS011;858;53.190;8.596;2023-05-19T08:59:37;7.57;;;3.40;;
1721;SDS011;858;53.190;8.596;2023-05-19T09:02:04;11.80;;;3.33;;
1721;SDS011;858;53.190;8.596;2023-05-19T09:04:31;8.90;;;3.23;;
1721;SDS011;858;53.190;8.596;2023-05-19T09:06:58;6.53;;;3.30;;
1721;SDS011;858;53.190;8.596;2023-05-19T09:09:26;7.13;;;3.50;;
1721;SDS011;858;53.190;8.596;2023-05-19T09:11:53;9.97;;;3.87;;
1721;SDS011;858;53.190;8.596;2023-05-19T09:14:19;8.90;;;3.40;;
1721;SDS011;858;53.190;8.596;2023-05-19T09:16:48;5.57;;;3.80;;
1721;SDS011;858;53.190;8.596;2023-05-19T09:19:16;6.77;;;3.20;;
1721;SDS011;858;53.190;8.596;2023-05-19T09:21:44;8.97;;;3.60;;
1721;SDS011;858;53.190;8.596;2023-05-19T09:24:11;4.17;;;2.80;;
1721;SDS011;858;53.190;8.596;2023-05-19T09:26:38;9.80;;;4.53;;
1721;SDS011;858;53.190;8.596;2023-05-19T09:29:11;6.60;;;3.70;;
1721;SDS011;858;53.190;8.596;2023-05-19T09:31:38;3.43;;;3.13;;
1721;SDS011;858;53.190;8.596;2023-05-19T09:34:11;8.10;;;2.97;;
1721;SDS011;858;53.190;8.596;2023-05-19T09:36:38;6.77;;;3.10;;
1721;SDS011;858;53.190;8.596;2023-05-19T09:39:11;4.90;;;2.60;;
1721;SDS011;858;53.190;8.596;2023-05-19T09:41:38;4.20;;;3.40;;
1721;SDS011;858;53.190;8.596;2023-05-19T09:44:06;8.13;;;2.90;;
1721;SDS011;858;53.190;8.596;2023-05-19T09:46:33;7.20;;;3.13;;
1721;SDS011;858;53.190;8.596;2023-05-19T09:49:07;7.57;;;3.40;;
1721;SDS011;858;53.190;8.596;2023-05-19T09:51:35;8.03;;;3.03;;
1721;SDS011;858;53.190;8.596;2023-05-19T09:54:02;7.27;;;3.37;;
1721;SDS011;858;53.190;8.596;2023-05-19T09:56:30;6.73;;;3.13;;
1721;SDS011;858;53.190;8.596;2023-05-19T09:58:57;6.37;;;3.33;;
1721;SDS011;858;53.190;8.596;2023-05-19T10:01:23;7.80;;;3.10;;
1721;SDS011;858;53.190;8.596;2023-05-19T10:03:50;2.83;;;2.27;;
1721;SDS011;858;53.190;8.596;2023-05-19T10:06:18;3.60;;;2.87;;
1721;SDS011;858;53.190;8.596;2023-05-19T10:08:46;7.80;;;3.57;;
1721;SDS011;858;53.190;8.596;2023-05-19T10:11:14;6.00;;;3.03;;
1721;SDS011;858;53.190;8.596;2023-05-19T10:13:41;3.30;;;3.00;;
1721;SDS011;858;53.190;8.596;2023-05-19T10:16:08;6.17;;;3.47;;
1721;SDS011;858;53.190;8.596;2023-05-19T10:18:34;10.33;;;3.07;;
1721;SDS011;858;53.190;8.596;2023-05-19T10:21:01;8.37;;;2.87;;
1721;SDS011;858;53.190;8.596;2023-05-19T10:23:27;5.83;;;2.63;;
1721;SDS011;858;53.190;8.596;2023-05-19T10:25:56;4.67;;;2.13;;
1721;SDS011;858;53.190;8.596;2023-05-19T10:28:24;3.63;;;2.20;;
1721;SDS011;858;53.190;8.596;2023-05-19T10:30:52;5.93;;;2.30;;
1721;SDS011;858;53.190;8.596;2023-05-19T10:33:19;2.40;;;2.10;;
1721;SDS011;858;53.190;8.596;2023-05-19T10:35:58;8.67;;;2.70;;
1721;SDS011;858;53.190;8.596;2023-05-19T10:38:33;7.67;;;2.50;;
1721;SDS011;858;53.190;8.596;2023-05-19T10:41:06;6.20;;;2.47;;
1721;SDS011;858;53.190;8.596;2023-05-19T10:43:38;5.07;;;2.20;;
1721;SDS011;858;53.190;8.596;2023-05-19T10:46:06;3.53;;;2.40;;
1721;SDS011;858;53.190;8.596;2023-05-19T10:48:32;5.27;;;2.23;;
1721;SDS011;858;53.190;8.596;2023-05-19T10:51:00;4.10;;;2.17;;
1721;SDS011;858;53.190;8.596;2023-05-19T17:06:47;2.55;;;2.17;;
1721;SDS011;858;53.190;8.596;2023-05-19T17:09:13;4.50;;;2.60;;
1721;SDS011;858;53.190;8.596;2023-05-19T17:11:40;5.03;;;3.13;;
1721;SDS011;858;53.190;8.596;2023-05-19T17:14:06;6.77;;;3.33;;
1721;SDS011;858;53.190;8.596;2023-05-19T17:16:33;5.17;;;2.30;;
1721;SDS011;858;53.190;8.596;2023-05-19T17:18:59;5.90;;;3.20;;
1721;SDS011;858;53.190;8.596;2023-05-19T17:21:26;4.23;;;2.27;;
1721;SDS011;858;53.190;8.596;2023-05-19T17:23:53;3.30;;;2.13;;
1721;SDS011;858;53.190;8.596;2023-05-19T17:26:20;8.70;;;2.50;;
1721;SDS011;858;53.190;8.596;2023-05-19T17:28:46;3.40;;;2.07;;
1721;SDS011;858;53.190;8.596;2023-05-19T17:31:13;4.63;;;2.23;;
1721;SDS011;858;53.190;8.596;2023-05-19T17:33:40;5.70;;;2.43;;
1721;SDS011;858;53.190;8.596;2023-05-19T17:36:06;4.60;;;2.33;;
1721;SDS011;858;53.190;8.596;2023-05-19T17:38:33;5.03;;;2.40;;
1721;SDS011;858;53.190;8.596;2023-05-19T17:41:05;3.17;;;2.03;;
1721;SDS011;858;53.190;8.596;2023-05-19T17:43:34;2.60;;;2.03;;
1721;SDS011;858;53.190;8.596;2023-05-19T17:46:00;5.33;;;3.90;;
1721;SDS011;858;53.190;8.596;2023-05-19T17:48:26;6.43;;;3.30;;
1721;SDS011;858;53.190;8.596;2023-05-19T17:50:52;4.80;;;3.30;;
1721;SDS011;858;53.190;8.596;2023-05-19T17:53:19;4.80;;;2.53;;
1721;SDS011;858;53.190;8.596;2023-05-19T17:55:46;4.10;;;2.20;;
1721;SDS011;858;53.190;8.596;2023-05-19T17:58:16;2.27;;;2.07;;
1721;SDS011;858;53.190;8.596;2023-05-19T18:00:43;4.20;;;2.70;;
1721;SDS011;858;53.190;8.596;2023-05-19T18:03:10;3.33;;;2.30;;
1721;SDS011;858;53.190;8.596;2023-05-19T18:05:36;5.43;;;2.70;;
1721;SDS011;858;53.190;8.596;2023-05-19T18:08:04;5.03;;;2.47;;
1721;SDS011;858;53.190;8.596;2023-05-19T18:10:34;7.23;;;2.40;;
1721;SDS011;858;53.190;8.596;2023-05-19T18:13:01;6.70;;;1.80;;
1721;SDS011;858;53.190;8.596;2023-05-19T18:15:28;4.03;;;2.97;;
1721;SDS011;858;53.190;8.596;2023-05-19T18:17:55;4.67;;;2.53;;
1721;SDS011;858;53.190;8.596;2023-05-19T18:20:21;7.10;;;2.60;;
1721;SDS011;858;53.190;8.596;2023-05-19T18:22:48;4.60;;;2.40;;
1721;SDS011;858;53.190;8.596;2023-05-19T18:25:14;4.77;;;2.60;;
1721;SDS011;858;53.190;8.596;2023-05-19T18:27:42;4.53;;;2.30;;
1721;SDS011;858;53.190;8.596;2023-05-19T18:30:09;6.20;;;2.57;;
1721;SDS011;858;53.190;8.596;2023-05-19T18:32:37;6.20;;;2.10;;
1721;SDS011;858;53.190;8.596;2023-05-19T18:35:03;4.60;;;2.43;;
1721;SDS011;858;53.190;8.596;2023-05-19T18:37:30;5.80;;;2.33;;
1721;SDS011;858;53.190;8.596;2023-05-19T18:39:56;2.90;;;2.70;;
1721;SDS011;858;53.190;8.596;2023-05-19T18:42:22;4.67;;;2.10;;
1721;SDS011;858;53.190;8.596;2023-05-19T18:44:49;6.50;;;2.40;;
1721;SDS011;858;53.190;8.596;2023-05-19T18:47:17;3.70;;;2.40;;
1721;SDS011;858;53.190;8.596;2023-05-19T18:49:45;3.97;;;2.37;;
1721;SDS011;858;53.190;8.596;2023-05-19T18:52:11;3.83;;;2.37;;
1721;SDS011;858;53.190;8.596;2023-05-19T18:54:38;5.70;;;2.40;;
1721;SDS011;858;53.190;8.596;2023-05-19T18:57:05;6.97;;;2.50;;
1721;SDS011;858;53.190;8.596;2023-05-19T18:59:32;6.23;;;2.43;;
1721;SDS011;858;53.190;8.596;2023-05-19T19:01:58;6.53;;;2.80;;
1721;SDS011;858;53.190;8.596;2023-05-19T19:04:24;4.87;;;2.57;;
1721;SDS011;858;53.190;8.596;2023-05-19T19:06:52;9.03;;;2.30;;
1721;SDS011;858;53.190;8.596;2023-05-19T19:09:18;3.70;;;2.50;;
1721;SDS011;858;53.190;8.596;2023-05-19T19:11:45;3.93;;;2.60;;
1721;SDS011;858;53.190;8.596;2023-05-19T19:14:11;3.13;;;2.50;;
1721;SDS011;858;53.190;8.596;2023-05-19T19:16:37;3.17;;;2.40;;
1721;SDS011;858;53.190;8.596;2023-05-19T19:19:04;6.90;;;3.30;;
1721;SDS011;858;53.190;8.596;2023-05-19T19:21:30;5.53;;;2.20;;
1721;SDS011;858;53.190;8.596;2023-05-19T19:23:58;2.70;;;1.77;;
1721;SDS011;858;53.190;8.596;2023-05-19T19:26:26;4.53;;;3.07;;
1721;SDS011;858;53.190;8.596;2023-05-19T19:28:53;4.80;;;1.90;;
1721;SDS011;858;53.190;8.596;2023-05-19T19:31:19;2.70;;;2.27;;
1721;SDS011;858;53.190;8.596;2023-05-19T19:33:45;10.80;;;2.60;;
1721;SDS011;858;53.190;8.596;2023-05-19T19:36:12;5.90;;;2.33;;
1721;SDS011;858;53.190;8.596;2023-05-19T19:38:39;6.70;;;2.37;;
1721;SDS011;858;53.190;8.596;2023-05-19T19:41:07;3.23;;;2.13;;
1721;SDS011;858;53.190;8.596;2023-05-19T19:43:33;2.93;;;2.00;;
1721;SDS011;858;53.190;8.596;2023-05-19T19:46:01;4.47;;;2.87;;
1721;SDS011;858;53.190;8.596;2023-05-19T19:48:28;5.07;;;2.30;;
1721;SDS011;858;53.190;8.596;2023-05-19T19:50:55;8.63;;;2.20;;
1721;SDS011;858;53.190;8.596;2023-05-19T19:53:21;4.17;;;2.43;;
1721;SDS011;858;53.190;8.596;2023-05-19T19:55:54;8.13;;;2.57;;
1721;SDS011;858;53.190;8.596;2023-05-19T19:58:22;5.03;;;2.33;;
1721;SDS011;858;53.190;8.596;2023-05-19T20:00:48;5.57;;;2.23;;
1721;SDS011;858;53.190;8.596;2023-05-19T20:03:14;4.40;;;2.23;;
1721;SDS011;858;53.190;8.596;2023-05-19T20:05:42;3.87;;;2.27;;
1721;SDS011;858;53.190;8.596;2023-05-19T20:08:08;4.77;;;2.30;;
1721;SDS011;858;53.190;8.596;2023-05-19T20:10:35;3.97;;;2.33;;
1721;SDS011;858;53.190;8.596;2023-05-19T20:13:01;5.70;;;2.30;;
1721;SDS011;858;53.190;8.596;2023-05-19T20:15:29;4.00;;;3.20;;
1721;SDS011;858;53.190;8.596;2023-05-19T20:17:55;4.73;;;2.60;;
1721;SDS011;858;53.190;8.596;2023-05-19T20:20:22;5.20;;;2.40;;
1721;SDS011;858;53.190;8.596;2023-05-19T20:22:50;2.30;;;1.87;;
1721;SDS011;858;53.190;8.596;2023-05-19T20:25:18;5.47;;;2.50;;
1721;SDS011;858;53.190;8.596;2023-05-19T20:27:44;4.13;;;2.10;;
1721;SDS011;858;53.190;8.596;2023-05-19T20:30:10;6.53;;;2.40;;
1721;SDS011;858;53.190;8.596;2023-05-19T20:32:38;3.60;;;2.13;;
1721;SDS011;858;53.190;8.596;2023-05-19T20:35:08;6.20;;;2.60;;
1721;SDS011;858;53.190;8.596;2023-05-19T20:37:35;5.47;;;2.27;;
1721;SDS011;858;53.190;8.596;2023-05-19T20:40:01;4.40;;;3.20;;
1721;SDS011;858;53.190;8.596;2023-05-19T20:42:28;4.43;;;2.20;;
1721;SDS011;858;53.190;8.596;2023-05-19T20:44:54;3.37;;;1.80;;
1721;SDS011;858;53.190;8.596;2023-05-19T20:47:21;5.13;;;2.07;;
1721;SDS011;858;53.190;8.596;2023-05-19T20:49:49;4.07;;;2.13;;
1721;SDS011;858;53.190;8.596;2023-05-19T20:52:15;6.30;;;2.70;;
1721;SDS011;858;53.190;8.596;2023-05-19T20:54:42;3.23;;;2.17;;
1721;SDS011;858;53.190;8.596;2023-05-19T20:57:09;5.43;;;2.40;;
1721;SDS011;858;53.190;8.596;2023-05-19T20:59:35;4.00;;;1.90;;
1721;SDS011;858;53.190;8.596;2023-05-19T21:02:01;6.00;;;2.03;;
1721;SDS011;858;53.190;8.596;2023-05-19T21:04:28;6.07;;;2.17;;
1721;SDS011;858;53.190;8.596;2023-05-19T21:06:56;4.70;;;2.00;;
1721;SDS011;858;53.190;8.596;2023-05-19T21:09:22;4.20;;;2.50;;
1721;SDS011;858;53.190;8.596;2023-05-19T21:11:48;3.37;;;2.10;;
1721;SDS011;858;53.190;8.596;2023-05-19T21:14:17;3.20;;;1.80;;
1721;SDS011;858;53.190;8.596;2023-05-19T21:16:46;3.77;;;2.37;;
1721;SDS011;858;53.190;8.596;2023-05-19T21:19:12;2.00;;;1.50;;
1721;SDS011;858;53.190;8.596;2023-05-19T21:21:38;4.10;;;1.93;;
1721;SDS011;858;53.190;8.596;2023-05-19T21:24:08;2.90;;;1.80;;
1721;SDS011;858;53.190;8.596;2023-05-19T21:26:36;3.93;;;1.87;;
1721;SDS011;858;53.190;8.596;2023-05-19T21:29:03;3.80;;;2.00;;
1721;SDS011;858;53.190;8.596;2023-05-19T21:31:29;6.70;;;2.40;;
1721;SDS011;858;53.190;8.596;2023-05-19T21:33:55;4.77;;;2.50;;
1721;SDS011;858;53.190;8.596;2023-05-19T21:36:22;4.00;;;2.50;;
1721;SDS011;858;53.190;8.596;2023-05-19T21:38:48;3.83;;;3.03;;
1721;SDS011;858;53.190;8.596;2023-05-19T21:41:16;2.43;;;2.23;;
1721;SDS011;858;53.190;8.596;2023-05-19T21:43:42;7.73;;;2.50;;
1721;SDS011;858;53.190;8.596;2023-05-19T21:46:09;6.23;;;2.17;;